Date,TemperatureHighF,TemperatureAvgF,TemperatureLowF,DewpointHighF,DewpointAvgF,DewpointLowF,HumidityHigh,HumidityAvg,HumidityLow,PressureMaxIn,PressureMinIn,WindSpeedMaxMPH,WindSpeedAvgMPH,GustSpeedMaxMPH,PrecipitationSumIn
2014-1-1,48,40,34,38,33,29,86,74,57,28.67,28.47,3,1,5,0.00
2014-1-2,47,40,26,46,37,16,97,87,66,28.47,28.07,6,2,20,0.22
2014-1-3,33,26,20,22,14,12,79,61,43,28.71,28.35,6,2,20,0.00
2014-1-4,35,31,26,27,19,15,79,62,48,28.76,28.54,7,4,14,0.00
2014-1-5,42,39,35,41,37,25,97,94,67,28.54,28.07,8,2,9,0.12
2014-1-6,43,25,10,43,18,1,98,73,49,28.67,28.06,17,3,17,0.13
2014-1-7,27,16,7,9,3,-3,73,56,33,28.81,28.66,10,2,10,0.00
2014-1-8,43,28,15,26,15,7,81,61,32,28.86,28.75,3,1,5,0.00
2014-1-9,47,38,28,36,26,17,85,65,39,28.82,28.69,10,2,10,0.01
2014-1-10,48,45,39,48,44,35,98,96,85,28.70,28.33,10,3,10,0.31
2014-1-11,59,52,47,56,48,38,98,88,59,28.33,27.99,16,1,16,1.07
2014-1-12,55,45,36,40,37,33,92,73,50,28.46,28.19,2,1,10,0.00
2014-1-13,55,42,33,45,38,31,97,86,56,28.47,28.24,5,1,8,0.59
2014-1-14,57,48,38,47,40,32,98,78,41,28.30,28.12,13,1,13,0.23
2014-1-15,48,39,31,35,29,16,94,69,33,28.34,28.22,12,1,12,0.00
2014-1-16,42,33,25,24,19,11,78,58,29,28.40,28.28,10,1,10,0.00
2014-1-17,50,37,27,34,25,14,89,65,36,28.35,28.19,16,2,16,0.00
2014-1-18,39,32,24,24,17,14,73,54,37,28.48,28.33,14,1,14,0.00
2014-1-19,51,39,29,31,27,20,83,63,43,28.37,28.27,11,1,11,0.00
2014-1-20,60,45,34,35,30,27,85,59,33,28.33,28.19,11,1,11,0.00
2014-1-21,50,37,23,35,28,14,92,71,41,28.30,28.03,17,2,18,0.00
2014-1-22,33,25,17,14,6,-1,70,47,23,28.47,28.30,16,2,16,0.00
2014-1-23,38,28,19,16,9,0,70,47,30,28.79,28.46,13,2,13,0.00
2014-1-24,30,21,11,13,2,-7,72,46,19,28.93,28.61,11,1,11,0.00
2014-1-25,39,28,15,22,14,5,78,56,38,28.61,28.19,15,1,16,0.00
2014-1-26,51,39,28,33,27,21,77,64,46,28.33,28.22,6,0,8,0.00
2014-1-27,60,45,33,40,31,9,88,61,35,28.37,28.19,12,1,12,0.00
2014-1-28,34,30,25,26,18,6,93,66,34,28.51,28.35,14,2,14,0.00
2014-1-29,31,24,17,22,13,7,87,63,40,28.65,28.49,6,1,6,0.07
2014-1-30,36,26,15,22,16,7,91,68,44,28.70,28.53,7,1,7,0.02
2014-1-31,53,36,21,28,19,10,86,57,18,28.56,28.45,4,0,5,0.01
2014-2-1,53,40,28,37,29,23,85,65,33,28.51,28.42,7,1,7,0.00
2014-2-2,61,49,37,54,45,33,97,86,75,28.46,28.24,7,0,7,0.01
2014-2-3,62,54,38,59,50,36,97,87,70,28.44,28.15,7,1,10,0.31
2014-2-4,46,42,37,42,39,35,97,91,83,28.54,28.36,12,6,16,0.47
2014-2-5,51,42,32,48,37,27,98,86,68,28.49,28.22,21,3,24,0.36
2014-2-6,43,35,29,31,27,24,83,73,61,28.62,28.47,9,1,9,0.00
2014-2-7,50,39,28,34,29,25,92,70,43,28.63,28.52,6,0,6,0.00
2014-2-8,55,43,36,37,33,29,86,69,41,28.56,28.42,9,0,9,0.00
2014-2-9,56,44,34,41,37,32,91,77,57,28.48,28.33,11,1,11,0.00
2014-2-10,48,42,37,44,39,35,96,90,84,28.46,28.35,9,0,9,0.01
2014-2-11,40,35,33,39,33,30,96,94,91,28.60,28.44,13,5,13,0.22
2014-2-12,33,30,27,31,28,25,96,93,89,28.58,28.14,21,8,24,0.00
2014-2-13,43,35,30,37,32,29,97,89,78,28.20,28.04,14,1,14,0.40
2014-2-14,51,42,32,40,34,29,93,75,57,28.23,28.03,9,0,9,0.29
2014-2-15,46,38,33,40,29,17,96,70,31,28.44,27.98,18,3,18,0.08
2014-2-16,58,44,32,35,30,23,84,59,35,28.46,28.38,11,1,11,0.00
2014-2-17,55,44,33,41,35,30,93,73,51,28.58,28.41,13,3,13,0.04
2014-2-18,65,50,35,56,42,34,97,75,42,28.53,28.35,6,0,6,0.00
2014-2-19,69,61,54,59,56,52,95,85,68,28.37,28.29,5,1,8,0.00
2014-2-20,67,60,53,59,56,51,97,87,68,28.41,28.18,9,1,9,0.00
2014-2-21,64,55,43,60,39,23,97,59,29,28.37,28.09,15,2,15,0.93
2014-2-22,62,48,39,38,31,24,84,55,25,28.51,28.37,7,0,7,0.00
2014-2-23,68,51,37,42,36,33,86,62,28,28.41,28.25,8,0,8,0.00
2014-2-24,66,53,44,41,33,22,84,50,23,28.41,28.27,12,1,12,0.00
2014-2-25,61,49,40,44,37,27,94,65,50,28.40,28.23,9,1,9,0.11
2014-2-26,52,43,31,36,25,15,72,50,36,28.25,28.11,14,2,14,0.00
2014-2-27,51,36,26,17,13,2,61,40,17,28.32,28.19,10,1,10,0.00
2014-2-28,49,40,28,26,20,12,68,45,32,28.52,28.32,16,4,17,0.00
2014-3-1,54,45,41,38,31,24,64,58,44,28.62,28.50,13,4,13,0.00
2014-3-2,71,57,45,52,46,40,87,67,43,28.52,28.23,3,1,7,0.00
2014-3-3,58,52,41,57,48,35,97,86,76,28.35,28.09,9,1,13,0.31
2014-3-4,48,42,35,42,32,24,79,67,54,28.54,28.20,8,3,16,0.00
2014-3-5,56,44,35,40,30,24,74,58,46,28.52,28.39,5,2,9,0.00
2014-3-6,46,40,37,38,30,22,92,69,44,28.53,28.32,19,8,25,0.22
2014-3-7,57,47,38,47,41,24,97,83,56,28.51,28.25,11,2,19,0.22
2014-3-8,67,52,37,48,40,36,96,69,35,28.44,28.33,10,1,10,0.00
2014-3-9,70,56,45,47,43,40,87,65,40,28.45,28.34,14,2,15,0.00
2014-3-10,71,57,43,48,43,39,87,63,35,28.40,28.19,12,1,12,0.00
2014-3-11,76,61,47,53,48,42,89,64,31,28.23,28.02,10,1,10,0.00
2014-3-12,70,57,40,61,50,24,97,78,52,28.20,27.77,15,2,19,0.32
2014-3-13,51,42,33,24,19,13,62,42,24,28.56,28.20,19,3,20,0.00
2014-3-14,63,47,30,42,26,18,83,48,22,28.63,28.42,7,1,7,0.00
2014-3-15,68,57,45,44,40,34,82,55,38,28.43,28.30,9,1,9,0.00
2014-3-16,55,51,50,51,49,45,97,91,69,28.31,27.99,7,3,13,1.64
2014-3-17,50,42,38,49,41,36,97,96,95,28.21,28.00,8,6,15,0.16
2014-3-18,50,41,36,44,38,34,96,89,80,28.39,28.18,8,5,15,0.00
2014-3-19,54,47,42,48,44,41,97,89,78,28.46,28.35,7,2,12,0.00
2014-3-20,68,54,44,46,36,19,97,59,16,28.39,28.29,11,1,11,0.00
2014-3-21,66,52,35,38,32,26,89,52,23,28.46,28.32,8,1,9,0.00
2014-3-22,74,58,43,50,44,35,83,61,38,28.36,28.25,8,1,8,0.00
2014-3-23,65,54,47,52,44,30,91,69,40,28.40,28.21,14,1,14,0.00
2014-3-24,56,48,36,37,32,28,83,56,37,28.49,28.27,10,1,10,0.00
2014-3-25,51,44,35,41,31,20,93,62,39,28.38,28.16,21,3,21,0.06
2014-3-26,53,40,30,24,13,3,51,36,13,28.57,28.40,7,2,18,0.00
2014-3-27,62,49,35,37,27,18,78,46,24,28.62,28.42,15,2,15,0.00
2014-3-28,56,54,49,55,50,34,97,88,46,28.45,28.28,7,2,7,0.13
2014-3-29,63,56,44,62,53,37,98,90,71,28.30,27.91,15,3,18,0.21
2014-3-30,65,52,40,37,32,26,80,52,24,28.37,28.13,21,3,21,0.00
2014-3-31,65,63,50,35,29,26,58,27,24,28.36,28.20,5,3,11,0.00
2014-4-4,73,65,58,62,57,55,92,75,55,28.20,27.99,3,1,12,0.00
2014-4-5,70,59,50,57,44,39,92,62,33,28.17,28.06,3,1,8,0.00
2014-4-6,58,54,51,49,42,36,90,64,49,28.26,28.13,8,4,15,0.05
2014-4-7,54,50,48,53,49,47,98,96,87,28.13,27.86,10,5,20,8.45
2014-4-8,63,53,45,53,43,38,98,72,45,27.98,27.87,5,2,12,0.00
2014-4-9,67,56,46,45,40,32,86,57,28,28.31,27.97,5,2,13,0.00
2014-4-10,73,57,41,47,40,36,85,57,28,28.44,28.31,3,1,8,0.00
2014-4-11,72,60,47,50,46,42,86,63,37,28.40,28.27,7,1,7,0.00
2014-4-12,80,65,50,55,52,47,92,65,37,28.37,28.23,6,1,6,0.00
2014-4-13,79,68,57,61,56,53,90,68,46,28.32,28.16,7,1,7,0.00
2014-4-14,68,64,62,64,60,56,96,87,69,28.17,27.97,5,0,5,0.29
2014-4-15,64,53,38,63,48,29,98,82,61,28.23,27.84,21,2,21,0.65
2014-4-16,57,46,32,36,31,28,91,59,36,28.50,28.22,12,3,12,0.03
2014-4-17,61,52,41,43,37,33,76,57,43,28.61,28.46,15,5,15,0.00
2014-4-18,57,54,50,49,43,35,95,68,48,28.49,28.29,15,5,15,0.21